Deusa Dos Mares — CUIT7 — position and weather

sailwx.info

Track history (hours):
 
Tides and Currents Weather Stations Pressure Air Temp Water Temp Dewpoint Dewpoint Depression Visibility Wind Speed Wind Dir Waves Ship Positions

Deusa Dos Mares

Last reported at 2017-Oct-19 14:11 UTC. Time now 2017-Oct-19 15:08 UTC.
Position N 39°13' W 009°22'.

Type: Fishing. MMSI: 263433660.

Date/timePositionNaut miles runAvg speedWind from/ knotsBaromVisibWave heightAir tempDewpointWater temp
2017-Oct-19 14:11N 39°13' W 009°22'0 0.5
2017-Oct-19 13:52N 39°13' W 009°22'0 0.5
2017-Oct-19 13:25N 39°13' W 009°22'  
2017-Oct-13 21:42N 39°21' W 009°22'1 6.7
2017-Oct-13 21:30N 39°20' W 009°23'4 8.6
2017-Oct-13 21:00N 39°16' W 009°25'4 8.4
2017-Oct-13 20:30N 39°12' W 009°27'4 8.5
2017-Oct-13 20:00N 39°08' W 009°29'4 8.5
2017-Oct-13 19:30N 39°04' W 009°31'1 2.2
2017-Oct-13 19:00N 39°03' W 009°32'0 0.6
2017-Oct-13 18:30N 39°03' W 009°31'0 0.3
2017-Oct-13 18:00N 39°03' W 009°31'3 5.4
2017-Oct-13 17:30N 39°06' W 009°32'3 6.1
2017-Oct-13 17:00N 39°09' W 009°30'4 6.8
2017-Oct-13 16:29N 39°10' W 009°26'2 1.4
2017-Oct-13 15:14N 39°12' W 009°25'0 0.4
2017-Oct-13 15:00N 39°12' W 009°25'  
2017-Oct-10 18:47N 39°24' W 009°22'1 0.6
2017-Oct-10 17:26N 39°24' W 009°23'0 0.1
2017-Oct-10 17:00N 39°24' W 009°23'5 1.6
2017-Oct-10 14:00N 39°19' W 009°23'3 2.3
2017-Oct-10 12:33N 39°18' W 009°27'1 9.6
2017-Oct-10 12:28N 39°19' W 009°27'5 0.2
2017-Oct-09 18:07N 39°21' W 009°22'0 0.0
2017-Oct-09 17:42N 39°21' W 009°22'0 0.0
2017-Oct-09 17:30N 39°21' W 009°22'0 0.0
2017-Oct-09 17:00N 39°21' W 009°22'0 0.0
2017-Oct-09 16:30N 39°21' W 009°22'0 0.0
2017-Oct-09 16:00N 39°21' W 009°22'3 5.2
2017-Oct-09 15:30N 39°20' W 009°25'2 3.9
2017-Oct-09 14:59N 39°18' W 009°27'0 0.3
2017-Oct-09 14:16N 39°19' W 009°27'  
Track history (hours):
 
Tides and Currents Weather Stations Pressure Air Temp Water Temp Dewpoint Dewpoint Depression Visibility Wind Speed Wind Dir Waves Ship Positions

Deusa Dos Mares

Last reported at 2017-Oct-19 14:11 UTC. Time now 2017-Oct-19 15:08 UTC.
Position N 39°13' W 009°22'.

Type: Fishing. MMSI: 263433660.

Date/timePositionNaut miles runAvg speedWind from/ knotsBaromVisibWave heightAir tempDewpointWater temp
2017-Oct-19 14:11N 39°13' W 009°22'0 0.5
2017-Oct-19 13:52N 39°13' W 009°22'0 0.5
2017-Oct-19 13:25N 39°13' W 009°22'  
2017-Oct-13 21:42N 39°21' W 009°22'1 6.7
2017-Oct-13 21:30N 39°20' W 009°23'4 8.6
2017-Oct-13 21:00N 39°16' W 009°25'4 8.4
2017-Oct-13 20:30N 39°12' W 009°27'4 8.5
2017-Oct-13 20:00N 39°08' W 009°29'4 8.5
2017-Oct-13 19:30N 39°04' W 009°31'1 2.2
2017-Oct-13 19:00N 39°03' W 009°32'0 0.6
2017-Oct-13 18:30N 39°03' W 009°31'0 0.3
2017-Oct-13 18:00N 39°03' W 009°31'3 5.4
2017-Oct-13 17:30N 39°06' W 009°32'3 6.1
2017-Oct-13 17:00N 39°09' W 009°30'4 6.8
2017-Oct-13 16:29N 39°10' W 009°26'2 1.4
2017-Oct-13 15:14N 39°12' W 009°25'0 0.4
2017-Oct-13 15:00N 39°12' W 009°25'  
2017-Oct-10 18:47N 39°24' W 009°22'1 0.6
2017-Oct-10 17:26N 39°24' W 009°23'0 0.1
2017-Oct-10 17:00N 39°24' W 009°23'5 1.6
2017-Oct-10 14:00N 39°19' W 009°23'3 2.3
2017-Oct-10 12:33N 39°18' W 009°27'1 9.6
2017-Oct-10 12:28N 39°19' W 009°27'5 0.2
2017-Oct-09 18:07N 39°21' W 009°22'0 0.0
2017-Oct-09 17:42N 39°21' W 009°22'0 0.0
2017-Oct-09 17:30N 39°21' W 009°22'0 0.0
2017-Oct-09 17:00N 39°21' W 009°22'0 0.0
2017-Oct-09 16:30N 39°21' W 009°22'0 0.0
2017-Oct-09 16:00N 39°21' W 009°22'3 5.2
2017-Oct-09 15:30N 39°20' W 009°25'2 3.9
2017-Oct-09 14:59N 39°18' W 009°27'0 0.3
2017-Oct-09 14:16N 39°19' W 009°27'  

Dump ship's entire track history